• Join FlightAware (Why Join?)
  • Login
  • US Flag 
01:35AM EDT


 

Airport Tracker/Info


-or-


 

Live Flight TrackerFlight Track Log ✈ C-GSLM ✈ 19-May-2013 ✈ CYFD - CYFD

Flight Track Log - Related Links

Times and Time Zones

All times are in EDT time to prevent confusion due to time zone crossing. See the C-GSLM flight status page for this flight to view local times or setup timezone preferences in your user account.

Time Position Orientation Groundspeed Altitude Reporting Facility
EDT Latitude Longitude Course Direction KTS MPH feet Rate Location/Type
03:33PM 43.1000 -80.3167 180° South 70 81 1,700  Level Toronto Center
03:34PM 43.0833 -80.3167 180° South 70 81 2,500 600 Climbing Toronto Center
03:35PM 43.0833 -80.3000 90° East 70 81 3,000 600 Climbing Toronto Center
03:36PM 43.1000 -80.3000 360° North 90 104 3,700 540 Climbing Toronto Center
03:37PM 43.1333 -80.3000 360° North 100 115 4,100 180 Climbing Toronto Center
03:38PM 43.1667 -80.3000 360° North 110 127 4,100  Level Toronto Center
03:39PM 43.2000 -80.2667 36° Northeast 120 138 4,100  Level Toronto Center
03:40PM 43.2167 -80.2500 36° Northeast 110 127 4,100 -120 Level Toronto Center
03:41PM 43.2167 -80.2000 90° East 110 127 3,900 -360 Descending Toronto Center
03:42PM 43.2333 -80.1833 36° Northeast 110 127 3,400 -480 Descending Toronto Center
03:43PM 43.2167 -80.1333 115° Southeast 100 115 3,000 -300 Descending Toronto Center
03:44PM 43.2167 -80.1167 90° East 100 115 2,900 -120 Descending Toronto Center
03:45PM 43.2000 -80.0667 115° Southeast 100 115 2,800 -360 Descending Toronto Center
03:46PM 43.1833 -80.0167 115° Southeast 100 115 2,200 -540 Descending Toronto Center
03:47PM 43.1833 -80.0000 90° East 100 115 1,800 -480 Descending Toronto Center
03:48PM 43.1833 -79.9500 90° East 100 115 1,300 -120 Descending Toronto Center
03:49PM 43.1667 -79.9000 115° Southeast 90 104 1,600 480 Climbing Toronto Center
03:50PM 43.1667 -79.8833 90° East 80 92 2,400 660 Climbing Toronto Center
03:51PM 43.1500 -79.8667 144° Southeast 90 104 3,000 300 Climbing Toronto Center
03:52PM 43.1333 -79.8333 124° Southeast 100 115 3,000  Level Toronto Center
03:53PM 43.1500 -79.8833 295° West 110 127 3,000  Level Toronto Center
03:54PM 43.1500 -79.9333 270° West 110 127 3,000  Level Toronto Center
03:55PM 43.1667 -79.9833 295° West 110 127 3,000  Level Toronto Center
03:56PM 43.1833 -80.0000 324° Northwest 110 127 3,000  Level Toronto Center
03:57PM 43.1833 -80.0500 270° West 110 127 3,100  Climbing Toronto Center
03:58PM 43.2000 -80.0833 304° West 110 127 3,100 -60 Level Toronto Center
03:59PM 43.2167 -80.1167 304° West 110 127 3,000  Descending Toronto Center
04:00PM 43.2500 -80.1667 312° West 120 138 3,100  Climbing Toronto Center
04:01PM 43.2333 -80.1833 216° Southwest 100 115 3,100  Level Toronto Center